createdAt,value
2023-05-09T00:02:02.187Z,8.70
2023-05-09T00:04:30.217Z,8.77
2023-05-09T00:06:58.224Z,8.23
2023-05-09T00:09:26.657Z,8.18
2023-05-09T00:11:54.485Z,8.65
2023-05-09T00:14:22.347Z,9.43
2023-05-09T00:16:50.758Z,9.30
2023-05-09T00:19:20.135Z,10.15
2023-05-09T00:21:48.106Z,9.10
2023-05-09T00:24:15.897Z,9.40
2023-05-09T00:26:43.680Z,10.02
2023-05-09T00:29:11.522Z,9.95
2023-05-09T00:31:39.562Z,9.75
2023-05-09T00:34:07.442Z,9.70
2023-05-09T00:36:36.792Z,10.45
2023-05-09T00:39:05.537Z,9.10
2023-05-09T00:41:33.378Z,9.13
2023-05-09T00:44:01.231Z,8.85
2023-05-09T00:46:29.290Z,9.90
2023-05-09T00:48:57.517Z,9.45
2023-05-09T00:51:26.367Z,9.35
2023-05-09T00:53:55.769Z,10.68
2023-05-09T00:56:23.739Z,10.20
2023-05-09T00:58:52.051Z,10.40
2023-05-09T01:01:19.957Z,9.60
2023-05-09T01:03:48.565Z,10.30
2023-05-09T01:06:23.849Z,9.18
2023-05-09T01:09:00.686Z,10.20
2023-05-09T01:11:33.770Z,9.57
2023-05-09T01:15:10.463Z,10.27
2023-05-09T01:17:50.861Z,10.60
2023-05-09T01:20:27.404Z,10.00
2023-05-09T01:23:11.241Z,10.80
2023-05-09T01:26:04.700Z,9.48
2023-05-09T01:28:46.427Z,10.18
2023-05-09T01:31:17.831Z,9.82
2023-05-09T01:33:49.865Z,9.73
2023-05-09T01:36:20.304Z,10.02
2023-05-09T01:38:51.290Z,10.13
2023-05-09T01:41:20.811Z,9.90
2023-05-09T01:43:51.704Z,10.38
2023-05-09T01:46:23.793Z,10.35
2023-05-09T01:48:53.309Z,9.47
2023-05-09T01:51:22.544Z,10.18
2023-05-09T01:53:52.614Z,11.82
2023-05-09T01:56:21.982Z,10.45
2023-05-09T01:58:51.923Z,10.77
2023-05-09T02:01:21.967Z,9.85
2023-05-09T02:03:53.560Z,10.60
2023-05-09T02:06:24.230Z,11.18
2023-05-09T02:08:52.730Z,9.30
2023-05-09T02:11:21.126Z,11.00
2023-05-09T02:13:50.839Z,11.32
2023-05-09T02:16:20.649Z,11.27
2023-05-09T02:18:50.123Z,11.15
2023-05-09T02:21:18.235Z,11.68
2023-05-09T02:23:46.483Z,11.38
2023-05-09T02:26:15.798Z,11.23
2023-05-09T02:28:46.061Z,9.68
2023-05-09T02:31:15.678Z,11.30
2023-05-09T02:33:44.607Z,9.98
2023-05-09T02:36:15.614Z,11.48
2023-05-09T02:38:45.477Z,12.40
2023-05-09T02:41:14.626Z,11.25
2023-05-09T02:43:42.690Z,12.05
2023-05-09T02:46:11.334Z,12.60
2023-05-09T02:48:39.233Z,13.63
2023-05-09T02:51:07.401Z,13.18
2023-05-09T02:53:36.674Z,12.88
2023-05-09T02:56:04.946Z,14.65
2023-05-09T02:58:32.729Z,13.82
2023-05-09T03:01:00.630Z,14.48
2023-05-09T03:03:28.555Z,13.07
2023-05-09T03:05:56.807Z,16.08
2023-05-09T03:08:24.875Z,15.18
2023-05-09T03:10:54.039Z,16.33
2023-05-09T03:13:22.417Z,15.38
2023-05-09T03:15:50.335Z,13.85
2023-05-09T03:18:18.835Z,14.73
2023-05-09T03:20:46.682Z,15.18
2023-05-09T03:23:14.543Z,18.23
2023-05-09T03:25:42.456Z,18.92
2023-05-09T03:28:11.655Z,16.52
2023-05-09T03:30:40.353Z,17.10
2023-05-09T03:33:11.943Z,17.10
2023-05-09T03:35:39.749Z,16.77
2023-05-09T03:38:08.295Z,17.02
2023-05-09T03:40:36.105Z,16.73
2023-05-09T03:43:08.417Z,15.00
2023-05-09T03:45:39.126Z,16.10
2023-05-09T03:48:09.825Z,16.27
2023-05-09T03:50:41.130Z,17.73
2023-05-09T03:53:09.902Z,17.20
2023-05-09T03:55:39.204Z,17.42
2023-05-09T03:58:07.324Z,14.75
2023-05-09T04:00:40.056Z,15.90
2023-05-09T04:03:13.762Z,15.95
2023-05-09T04:08:22.810Z,14.70
2023-05-09T04:10:51.019Z,15.30
2023-05-09T04:13:19.383Z,17.73
2023-05-09T04:15:48.861Z,15.85
2023-05-09T04:18:17.006Z,17.00
2023-05-09T04:20:45.710Z,18.02
2023-05-09T04:23:14.024Z,18.90
2023-05-09T04:25:42.475Z,18.60
2023-05-09T04:28:10.248Z,16.00
2023-05-09T04:30:38.302Z,16.85
2023-05-09T04:33:07.706Z,16.65
2023-05-09T04:35:35.742Z,16.00
2023-05-09T04:38:04.836Z,14.52
2023-05-09T04:40:33.216Z,14.65
2023-05-09T04:43:01.976Z,15.57
2023-05-09T04:45:31.844Z,14.13
2023-05-09T04:48:01.170Z,12.98
2023-05-09T04:50:31.836Z,12.68
2023-05-09T04:52:59.595Z,13.50
2023-05-09T04:55:27.389Z,13.52
2023-05-09T04:57:56.745Z,13.73
2023-05-09T05:00:24.848Z,13.80
2023-05-09T05:02:52.746Z,12.52
2023-05-09T05:05:25.035Z,13.35
2023-05-09T05:07:55.177Z,12.70
2023-05-09T05:10:27.273Z,12.95
2023-05-09T05:13:03.338Z,14.48
2023-05-09T05:15:31.273Z,14.70
2023-05-09T05:18:00.015Z,13.70
2023-05-09T05:20:32.294Z,12.65
2023-05-09T05:23:02.037Z,13.25
2023-05-09T05:25:29.936Z,13.45
2023-05-09T05:27:58.878Z,11.93
2023-05-09T05:30:27.423Z,12.55
2023-05-09T05:32:55.472Z,12.90
2023-05-09T05:35:24.696Z,12.70
2023-05-09T05:37:53.920Z,14.00
2023-05-09T05:40:24.365Z,14.10
2023-05-09T05:42:54.368Z,13.40
2023-05-09T05:45:22.432Z,13.15
2023-05-09T05:47:54.444Z,14.32
2023-05-09T05:50:24.067Z,15.25
2023-05-09T05:52:51.876Z,12.23
2023-05-09T05:55:20.540Z,13.55
2023-05-09T05:57:49.726Z,12.35
2023-05-09T06:00:18.228Z,13.45
2023-05-09T06:02:50.745Z,13.43
2023-05-09T06:05:25.047Z,12.77
2023-05-09T06:07:53.467Z,11.05
2023-05-09T06:10:21.377Z,12.25
2023-05-09T06:12:50.759Z,12.43
2023-05-09T06:15:19.005Z,12.40
2023-05-09T06:17:50.001Z,12.05
2023-05-09T06:20:17.957Z,12.35
2023-05-09T06:22:45.784Z,12.32
2023-05-09T06:25:13.805Z,11.93
2023-05-09T06:27:41.821Z,11.73
2023-05-09T06:30:24.854Z,13.27
2023-05-09T06:32:53.985Z,11.07
2023-05-09T06:35:21.986Z,11.07
2023-05-09T06:37:50.192Z,11.20
2023-05-09T06:40:18.174Z,10.52
2023-05-09T06:42:46.151Z,11.45
2023-05-09T06:45:15.616Z,11.45
2023-05-09T06:47:43.709Z,10.02
2023-05-09T06:50:11.865Z,11.85
2023-05-09T06:52:39.758Z,14.05
2023-05-09T06:55:09.306Z,11.30
2023-05-09T06:57:37.411Z,12.85
2023-05-09T07:00:11.656Z,10.88
2023-05-09T07:02:42.242Z,11.93
2023-05-09T07:05:13.471Z,9.60
2023-05-09T07:07:41.410Z,10.88
2023-05-09T07:10:12.372Z,11.77
2023-05-09T07:12:41.090Z,11.20
2023-05-09T07:15:10.930Z,9.77
2023-05-09T07:17:40.676Z,10.43
2023-05-09T07:20:09.499Z,12.45
2023-05-09T07:22:37.736Z,10.20
2023-05-09T07:25:08.418Z,10.50
2023-05-09T07:27:36.385Z,10.07
2023-05-09T07:30:04.528Z,9.85
2023-05-09T07:32:32.792Z,9.73
2023-05-09T07:35:04.048Z,9.25
2023-05-09T07:37:33.833Z,9.57
2023-05-09T07:40:01.686Z,10.05
2023-05-09T07:42:30.333Z,9.63
2023-05-09T07:44:59.167Z,8.80
2023-05-09T07:47:27.245Z,9.05
2023-05-09T07:49:55.277Z,8.70
2023-05-09T07:52:24.571Z,9.23
2023-05-09T07:54:52.462Z,8.15
2023-05-09T07:57:20.381Z,8.73
2023-05-09T07:59:48.251Z,9.00
2023-05-09T08:02:16.129Z,8.38
2023-05-09T08:04:44.016Z,8.27
2023-05-09T08:07:12.014Z,7.03
2023-05-09T08:09:41.323Z,7.43
2023-05-09T08:12:09.588Z,6.53
2023-05-09T08:14:37.471Z,6.25
2023-05-09T08:17:05.356Z,6.35
2023-05-09T08:19:33.230Z,6.70
2023-05-09T08:22:01.440Z,6.55
2023-05-09T08:24:29.432Z,5.32
2023-05-09T08:26:58.828Z,5.65
2023-05-09T08:29:26.724Z,5.72
2023-05-09T08:31:54.578Z,4.85
2023-05-09T08:34:22.385Z,5.03
2023-05-09T08:36:50.414Z,4.80
2023-05-09T08:39:18.336Z,4.10
2023-05-09T08:41:46.739Z,4.13
2023-05-09T08:44:16.057Z,4.10
2023-05-09T08:46:46.415Z,4.13
2023-05-09T08:49:14.839Z,4.57
2023-05-09T08:51:42.699Z,5.03
2023-05-09T08:54:11.254Z,4.88
2023-05-09T08:56:39.529Z,5.00
2023-05-09T08:59:07.716Z,3.78
2023-05-09T09:01:37.177Z,3.20
2023-05-09T09:04:07.092Z,3.80
2023-05-09T09:06:35.871Z,5.88
2023-05-09T09:09:07.032Z,3.70
2023-05-09T09:11:36.233Z,3.40
2023-05-09T09:14:10.716Z,4.20
2023-05-09T09:16:41.221Z,3.88
2023-05-09T09:19:17.604Z,3.63
2023-05-09T09:21:47.847Z,3.50
2023-05-09T09:24:19.259Z,3.67
2023-05-09T09:26:48.983Z,4.20
2023-05-09T09:29:18.512Z,4.65
2023-05-09T09:31:48.910Z,4.43
2023-05-09T09:34:22.784Z,4.90
2023-05-09T09:36:52.575Z,3.55
2023-05-09T09:39:21.713Z,3.60
2023-05-09T09:41:50.086Z,3.83
2023-05-09T09:44:20.843Z,3.70
2023-05-09T09:46:52.155Z,4.10
2023-05-09T09:49:21.760Z,3.63
2023-05-09T09:51:53.360Z,4.00
2023-05-09T09:54:21.981Z,3.33
2023-05-09T09:56:51.916Z,4.22
2023-05-09T09:59:21.269Z,3.55
2023-05-09T10:02:04.181Z,3.50
2023-05-09T10:04:35.474Z,3.22
2023-05-09T10:07:05.928Z,3.30
2023-05-09T10:09:35.067Z,3.55
2023-05-09T10:12:04.484Z,4.68
2023-05-09T10:14:35.295Z,4.40
2023-05-09T10:17:06.470Z,4.30
2023-05-09T10:19:39.054Z,3.58
2023-05-09T10:24:43.175Z,2.58
2023-05-09T10:27:12.946Z,4.13
2023-05-09T10:29:51.218Z,3.95
2023-05-09T10:32:27.471Z,3.40
2023-05-09T10:35:01.206Z,2.92
2023-05-09T10:37:30.987Z,3.80
2023-05-09T10:40:00.234Z,3.88
2023-05-09T10:42:28.530Z,3.17
2023-05-09T10:44:57.841Z,3.33
2023-05-09T10:47:29.052Z,3.40
2023-05-09T10:49:57.624Z,2.92
2023-05-09T10:52:25.408Z,3.72
2023-05-09T10:55:01.440Z,3.45
2023-05-09T10:57:31.186Z,3.35
2023-05-09T11:00:00.144Z,2.55
2023-05-09T11:02:32.259Z,3.35
2023-05-09T11:05:17.558Z,3.17
2023-05-09T11:07:45.849Z,3.08
2023-05-09T11:10:17.645Z,3.40
2023-05-09T11:12:57.946Z,3.60
2023-05-09T11:15:27.566Z,3.10
2023-05-09T11:18:08.288Z,3.42
2023-05-09T11:20:37.293Z,3.45
2023-05-09T11:23:06.035Z,3.08
2023-05-09T11:25:33.959Z,3.20
2023-05-09T11:28:02.816Z,2.85
2023-05-09T11:30:40.534Z,3.15
2023-05-09T11:33:23.924Z,3.63
2023-05-09T11:36:16.492Z,3.00
2023-05-09T11:38:44.517Z,2.42
2023-05-09T11:41:12.657Z,3.38
2023-05-09T11:43:41.501Z,2.60
2023-05-09T11:46:09.606Z,2.80
2023-05-09T11:48:42.956Z,2.22
2023-05-09T11:51:18.022Z,3.63
2023-05-09T11:53:46.988Z,2.70
2023-05-09T11:56:15.432Z,3.10
2023-05-09T11:58:44.102Z,2.95
2023-05-09T12:01:12.805Z,2.88
2023-05-09T12:03:45.319Z,2.53
2023-05-09T12:06:17.239Z,2.97
2023-05-09T12:08:45.697Z,4.47
2023-05-09T12:11:15.108Z,3.53
2023-05-09T12:13:48.170Z,3.28
2023-05-09T12:16:17.167Z,3.95
2023-05-09T12:18:51.654Z,3.50
2023-05-09T12:21:20.147Z,3.70
2023-05-09T12:23:50.909Z,3.67
2023-05-09T12:26:19.021Z,3.85
2023-05-09T12:28:47.232Z,3.60
2023-05-09T12:31:15.615Z,8.55
2023-05-09T12:33:44.081Z,4.57
2023-05-09T12:36:15.913Z,3.05
2023-05-09T12:38:54.134Z,3.30
2023-05-09T12:43:58.169Z,2.70
2023-05-09T12:46:26.136Z,3.22
2023-05-09T12:48:55.613Z,3.13
2023-05-09T12:51:24.996Z,2.50
2023-05-09T12:53:53.998Z,2.72
2023-05-09T12:56:23.567Z,2.80
2023-05-09T12:58:53.176Z,2.80
2023-05-09T13:01:22.145Z,2.45
2023-05-09T13:03:53.741Z,3.00
2023-05-09T13:06:24.126Z,3.00
2023-05-09T13:09:01.227Z,4.05
2023-05-09T13:11:29.790Z,3.25
2023-05-09T13:13:57.858Z,2.42
2023-05-09T13:16:25.772Z,2.80
2023-05-09T13:18:53.576Z,3.55
2023-05-09T13:21:21.418Z,3.75
2023-05-09T13:23:50.148Z,3.80
2023-05-09T13:26:19.556Z,4.55
2023-05-09T13:28:47.480Z,6.07
2023-05-09T13:31:15.508Z,5.00
2023-05-09T13:33:43.799Z,5.35
2023-05-09T13:36:11.896Z,5.80
2023-05-09T13:38:40.848Z,5.40
2023-05-09T13:41:09.146Z,6.65
2023-05-09T13:43:42.519Z,5.95
2023-05-09T13:46:10.532Z,5.78
2023-05-09T13:48:39.571Z,6.05
2023-05-09T13:51:07.934Z,5.82
2023-05-09T13:53:38.116Z,11.48
2023-05-09T13:56:09.268Z,5.32
2023-05-09T13:58:38.573Z,5.38
2023-05-09T14:01:07.332Z,6.00
2023-05-09T14:03:35.811Z,5.03
2023-05-09T14:06:04.264Z,5.22
2023-05-09T14:08:32.366Z,6.63
2023-05-09T14:11:00.240Z,5.22
2023-05-09T14:13:28.334Z,6.28
2023-05-09T14:15:57.965Z,6.47
2023-05-09T14:18:25.804Z,6.97
2023-05-09T14:20:53.689Z,6.93
2023-05-09T14:23:22.401Z,6.60
2023-05-09T14:25:50.663Z,5.88
2023-05-09T14:28:18.508Z,5.15
2023-05-09T14:30:46.331Z,4.28
2023-05-09T14:33:15.547Z,4.88
2023-05-09T14:35:43.367Z,4.28
2023-05-09T14:38:12.482Z,6.53
2023-05-09T14:40:40.687Z,4.88
2023-05-09T14:43:09.492Z,4.72
2023-05-09T14:45:37.369Z,5.65
2023-05-09T14:48:05.339Z,5.05
2023-05-09T14:50:34.569Z,4.25
2023-05-09T14:53:02.436Z,4.90
2023-05-09T14:55:31.323Z,6.72
2023-05-09T14:57:59.501Z,5.20
2023-05-09T15:00:28.438Z,5.45
2023-05-09T15:02:57.077Z,5.53
2023-05-09T15:05:25.178Z,5.60
2023-05-09T15:07:54.630Z,5.22
2023-05-09T15:10:22.876Z,5.20
2023-05-09T15:12:50.774Z,5.22
2023-05-09T15:15:20.667Z,4.53
2023-05-09T15:17:48.513Z,4.28
2023-05-09T15:20:17.602Z,4.63
2023-05-09T15:22:46.015Z,4.38
2023-05-09T15:25:16.312Z,4.07
2023-05-09T15:27:44.141Z,5.03
2023-05-09T15:30:12.865Z,4.70
2023-05-09T15:32:41.229Z,4.32
2023-05-09T15:35:09.890Z,4.78
2023-05-09T15:37:37.897Z,4.03
2023-05-09T15:40:07.508Z,5.88
2023-05-09T15:42:37.228Z,4.22
2023-05-09T15:45:05.747Z,5.07
2023-05-09T15:47:33.952Z,5.47
2023-05-09T15:50:01.956Z,5.75
2023-05-09T15:52:29.775Z,5.03
2023-05-09T15:54:58.050Z,4.95
2023-05-09T15:57:26.117Z,4.93
2023-05-09T15:59:55.935Z,4.72
2023-05-09T16:02:24.114Z,5.20
2023-05-09T16:04:52.206Z,4.93
2023-05-09T16:07:20.837Z,5.32
2023-05-09T16:09:48.941Z,4.88
2023-05-09T16:12:17.150Z,5.07
2023-05-09T16:14:45.480Z,5.13
2023-05-09T16:17:14.713Z,4.07
2023-05-09T16:19:42.726Z,4.88
2023-05-09T16:22:10.924Z,3.85
2023-05-09T16:24:38.757Z,4.10
2023-05-09T16:27:06.631Z,4.18
2023-05-09T16:29:34.610Z,4.38
2023-05-09T16:32:02.651Z,4.38
2023-05-09T16:34:31.987Z,4.63
2023-05-09T16:37:00.009Z,4.20
2023-05-09T16:39:28.927Z,4.30
2023-05-09T16:41:56.920Z,4.05
2023-05-09T16:44:25.713Z,4.38
2023-05-09T16:46:53.682Z,5.05
2023-05-09T16:49:21.528Z,3.90
2023-05-09T16:51:50.727Z,3.22
2023-05-09T16:54:18.637Z,3.35
2023-05-09T16:56:46.513Z,3.60
2023-05-09T16:59:14.568Z,4.15
2023-05-09T17:01:42.467Z,3.97
2023-05-09T17:04:10.339Z,4.00
2023-05-09T17:06:38.227Z,2.75
2023-05-09T17:09:07.633Z,2.83
2023-05-09T17:11:35.585Z,3.08
2023-05-09T17:14:04.224Z,2.22
2023-05-09T17:16:32.133Z,2.95
2023-05-09T17:19:03.840Z,3.10
2023-05-09T17:21:32.305Z,3.70
2023-05-09T17:24:01.957Z,3.72
2023-05-09T17:26:31.664Z,3.70
2023-05-09T17:28:59.533Z,3.42
2023-05-09T17:31:27.476Z,3.40
2023-05-09T17:33:55.465Z,3.80
2023-05-09T17:36:23.477Z,3.90
2023-05-09T17:38:51.341Z,2.67
2023-05-09T17:41:19.151Z,4.25
2023-05-09T17:43:48.302Z,4.05
2023-05-09T17:46:16.155Z,3.75
2023-05-09T17:48:44.526Z,5.35
2023-05-09T17:51:12.488Z,3.92
2023-05-09T17:53:40.330Z,4.35
2023-05-09T17:56:08.254Z,3.92
2023-05-09T17:58:36.300Z,6.03
2023-05-09T18:01:05.780Z,4.00
2023-05-09T18:03:34.005Z,3.67
2023-05-09T18:06:02.225Z,4.63
2023-05-09T18:08:30.570Z,4.15
2023-05-09T18:10:58.905Z,4.68
2023-05-09T18:13:26.821Z,3.80
2023-05-09T18:15:59.343Z,3.38
2023-05-09T18:20:56.830Z,2.42
2023-05-09T18:23:25.628Z,2.17
2023-05-09T18:25:54.088Z,2.33
2023-05-09T18:28:24.739Z,1.95
2023-05-09T18:30:54.394Z,1.33
2023-05-09T18:33:23.381Z,1.40
2023-05-09T18:35:53.585Z,2.45
2023-05-09T18:38:21.579Z,2.35
2023-05-09T18:40:51.622Z,2.55
2023-05-09T18:43:20.782Z,1.88
2023-05-09T18:45:49.229Z,1.85
2023-05-09T18:48:17.252Z,1.90
2023-05-09T18:50:45.133Z,1.88
2023-05-09T18:53:14.319Z,1.63
2023-05-09T18:55:42.809Z,1.95
2023-05-09T18:58:10.973Z,1.05
2023-05-09T19:00:40.087Z,2.45
2023-05-09T19:03:08.034Z,1.95
2023-05-09T19:05:36.030Z,2.08
2023-05-09T19:08:04.229Z,1.48
2023-05-09T19:10:34.195Z,1.23
2023-05-09T19:13:02.196Z,1.55
2023-05-09T19:15:30.241Z,1.63
2023-05-09T19:17:58.148Z,1.05
2023-05-09T19:20:26.288Z,1.05
2023-05-09T19:22:54.132Z,1.40
2023-05-09T19:25:22.069Z,1.33
2023-05-09T19:27:53.783Z,0.98
2023-05-09T19:30:22.113Z,1.60
2023-05-09T19:32:49.998Z,1.83
2023-05-09T19:35:18.158Z,1.33
2023-05-09T19:37:46.083Z,0.60
2023-05-09T19:40:14.729Z,0.93
2023-05-09T19:42:42.859Z,0.38
2023-05-09T19:45:13.213Z,1.13
2023-05-09T19:47:41.573Z,1.05
2023-05-09T19:50:10.882Z,1.35
2023-05-09T19:52:39.160Z,0.52
2023-05-09T19:55:08.082Z,1.00
2023-05-09T19:57:35.981Z,1.63
2023-05-09T20:00:07.652Z,0.75
2023-05-09T20:02:36.896Z,0.60
2023-05-09T20:05:04.772Z,1.40
2023-05-09T20:07:32.722Z,0.75
2023-05-09T20:10:00.605Z,2.70
2023-05-09T20:12:30.234Z,0.90
2023-05-09T20:14:58.467Z,0.73
2023-05-09T20:17:26.439Z,1.05
2023-05-09T20:19:55.708Z,1.00
2023-05-09T20:22:24.040Z,0.70
2023-05-09T20:24:52.076Z,0.60
2023-05-09T20:27:19.978Z,1.20
2023-05-09T20:29:48.146Z,0.82
2023-05-09T20:32:16.223Z,1.23
2023-05-09T20:34:44.004Z,2.10
2023-05-09T20:37:13.297Z,1.20
2023-05-09T20:39:41.173Z,2.65
2023-05-09T20:42:09.030Z,1.08
2023-05-09T20:44:37.587Z,1.63
2023-05-09T20:47:05.640Z,1.25
2023-05-09T20:49:33.447Z,1.52
2023-05-09T20:52:01.255Z,1.52
2023-05-09T20:54:30.930Z,1.73
2023-05-09T20:56:58.748Z,1.88
2023-05-09T20:59:26.644Z,1.60
2023-05-09T21:01:55.555Z,1.83
2023-05-09T21:04:23.470Z,1.85
2023-05-09T21:06:51.317Z,1.90
2023-05-09T21:09:19.232Z,1.70
2023-05-09T21:11:48.414Z,1.60
2023-05-09T21:14:16.249Z,1.55
2023-05-09T21:16:45.123Z,2.20
2023-05-09T21:19:12.938Z,1.77
2023-05-09T21:21:40.822Z,2.20
2023-05-09T21:24:09.731Z,2.90
2023-05-09T21:26:37.722Z,2.60
2023-05-09T21:29:06.950Z,2.10
2023-05-09T21:31:34.942Z,2.47
2023-05-09T21:34:02.864Z,2.42
2023-05-09T21:36:30.740Z,2.50
2023-05-09T21:38:58.471Z,2.28
2023-05-09T21:41:27.755Z,2.53
2023-05-09T21:43:56.126Z,2.58
2023-05-09T21:46:25.488Z,3.47
2023-05-09T21:48:54.218Z,3.53
2023-05-09T21:51:22.116Z,2.80
2023-05-09T21:53:49.909Z,4.22
2023-05-09T21:56:17.730Z,3.00
2023-05-09T21:58:45.626Z,3.30
2023-05-09T22:01:13.596Z,3.13
2023-05-09T22:03:42.910Z,3.42
2023-05-09T22:06:11.543Z,3.75
2023-05-09T22:08:39.342Z,3.40
2023-05-09T22:11:07.748Z,3.95
2023-05-09T22:13:36.598Z,3.35
2023-05-09T22:16:04.764Z,3.53
2023-05-09T22:18:32.576Z,4.18
2023-05-09T22:21:02.015Z,4.25
2023-05-09T22:23:29.784Z,4.10
2023-05-09T22:25:57.536Z,4.72
2023-05-09T22:28:25.363Z,4.40
2023-05-09T22:30:53.169Z,3.40
2023-05-09T22:33:21.440Z,4.30
2023-05-09T22:35:49.306Z,3.42
2023-05-09T22:38:18.445Z,3.83
2023-05-09T22:40:46.314Z,3.90
2023-05-09T22:43:14.153Z,4.15
2023-05-09T22:45:41.970Z,4.30
2023-05-09T22:48:09.838Z,4.20
2023-05-09T22:50:37.695Z,4.07
2023-05-09T22:53:05.626Z,4.45
2023-05-09T22:55:34.789Z,4.05
2023-05-09T22:58:02.625Z,4.43
2023-05-09T23:00:30.547Z,5.20
2023-05-09T23:02:59.311Z,4.45
2023-05-09T23:05:27.332Z,5.03
2023-05-09T23:07:55.113Z,5.28
2023-05-09T23:10:22.989Z,4.97
2023-05-09T23:12:52.139Z,4.20
2023-05-09T23:15:20.282Z,4.43
2023-05-09T23:17:48.061Z,5.55
2023-05-09T23:20:16.138Z,4.65
2023-05-09T23:22:44.177Z,5.38
2023-05-09T23:25:11.980Z,4.85
2023-05-09T23:27:40.833Z,5.75
2023-05-09T23:30:11.591Z,5.82
2023-05-09T23:32:39.512Z,5.30
2023-05-09T23:35:08.095Z,6.22
2023-05-09T23:37:35.944Z,6.40
2023-05-09T23:40:04.138Z,6.60
2023-05-09T23:42:32.070Z,5.03
2023-05-09T23:45:00.752Z,5.82
2023-05-09T23:47:30.020Z,5.32
2023-05-09T23:49:58.038Z,5.13
2023-05-09T23:52:26.129Z,5.13
2023-05-09T23:54:53.892Z,5.70
2023-05-09T23:57:21.760Z,5.32
2023-05-09T23:59:49.574Z,5.45
